| time (UTC) | temp C | wind direction | speed KPH | gust KPH | rain 1hr cm | rain 24hr cm | rain mn cm | humidity % | barometer mb |
| 20260506194939 | 15 | 228 | 3.2 | 9.7 | 0.03 | 0.30 | 0.25 | 92 | 1007.5 |
| 20260506193926 | 15 | 241 | 1.6 | 4.8 | 0.00 | 0.28 | 0.25 | 92 | 1007.6 |
| 20260506192926 | 15 | 217 | 3.2 | 4.8 | 0.03 | 0.28 | 0.25 | 91 | 1007.8 |
| 20260506191926 | 15 | 238 | 3.2 | 6.4 | 0.05 | 0.28 | 0.23 | 91 | 1007.8 |
| 20260506190926 | 15 | 239 | 3.2 | 6.4 | 0.05 | 0.28 | 0.23 | 91 | 1007.8 |
| 20260506185925 | 15 | 257 | 3.2 | 8.0 | 0.05 | 0.28 | 0.23 | 90 | 1007.9 |
| 20260506184926 | 16 | 239 | 3.2 | 11.3 | 0.08 | 0.28 | 0.23 | 90 | 1008.0 |
| 20260506183926 | 16 | 284 | 3.2 | 8.0 | 0.10 | 0.28 | 0.23 | 90 | 1008.0 |
| 20260506182908 | 16 | 268 | 3.2 | 8.0 | 0.10 | 0.25 | 0.23 | 90 | 1007.9 |
| 20260506181909 | 16 | 244 | 3.2 | 8.0 | 0.13 | 0.23 | 0.20 | 90 | 1008.0 |
| 20260506180910 | 16 | 294 | 3.2 | 4.8 | 0.15 | 0.23 | 0.18 | 90 | 1008.0 |
| 20260506175909 | 16 | 228 | 3.2 | 4.8 | 0.15 | 0.23 | 0.18 | 89 | 1007.9 |
| 20260506174909 | 16 | 303 | 3.2 | 8.0 | 0.15 | 0.20 | 0.18 | 88 | 1008.2 |
| 20260506173911 | 16 | 227 | 3.2 | 6.4 | 0.15 | 0.18 | 0.15 | 86 | 1008.2 |
| 20260506172911 | 17 | 225 | 3.2 | 4.8 | 0.10 | 0.15 | 0.10 | 83 | 1008.7 |
| 20260506171910 | 17 | 236 | 3.2 | 8.0 | 0.05 | 0.10 | 0.05 | 81 | 1008.9 |
| 20260506170859 | 18 | 218 | 3.2 | 9.7 | 0.05 | 0.10 | 0.05 | 78 | 1009.1 |
| 20260506165900 | 18 | 224 | 4.8 | 9.7 | 0.05 | 0.08 | 0.05 | 75 | 1009.1 |
| 20260506164858 | 19 | 236 | 3.2 | 9.7 | 0.03 | 0.08 | 0.03 | 74 | 1008.9 |
| 20260506163857 | 20 | 262 | 4.8 | 8.0 | 0.00 | 0.05 | 0.00 | 71 | 1008.9 |
| 20260506162859 | 20 | 337 | 4.8 | 8.0 | 0.00 | 0.05 | 0.00 | 69 | 1008.7 |
| 20260506161858 | 20 | 245 | 3.2 | 6.4 | 0.00 | 0.05 | 0.00 | 68 | 1008.7 |
| 20260506160859 | 20 | 245 | 3.2 | 11.3 | 0.00 | 0.05 | 0.00 | 67 | 1008.9 |
| 20260506155842 | 20 | 255 | 4.8 | 11.3 | 0.00 | 0.05 | 0.00 | 67 | 1009.2 |
| 20260506154843 | 20 | 239 | 3.2 | 6.4 | 0.00 | 0.05 | 0.00 | 68 | 1009.3 |
| 20260506153843 | 20 | 255 | 4.8 | 9.7 | 0.00 | 0.05 | 0.00 | 68 | 1009.3 |
| 20260506152831 | 20 | 265 | 3.2 | 8.0 | 0.00 | 0.05 | 0.00 | 68 | 1009.4 |
| 20260506151829 | 20 | 247 | 3.2 | 8.0 | 0.00 | 0.05 | 0.00 | 69 | 1009.6 |
| 20260506150829 | 19 | 244 | 4.8 | 8.0 | 0.00 | 0.05 | 0.00 | 70 | 1009.6 |
| 20260506145821 | 19 | 19 | 3.2 | 9.7 | 0.00 | 0.05 | 0.00 | 72 | 1009.7 |
| 20260506144811 | 18 | 209 | 4.8 | 9.7 | 0.00 | 0.05 | 0.00 | 73 | 1009.8 |
| 20260506143815 | 18 | 226 | 4.8 | 8.0 | 0.00 | 0.05 | 0.00 | 73 | 1009.9 |
| 20260506142814 | 18 | 245 | 3.2 | 8.0 | 0.00 | 0.05 | 0.00 | 73 | 1009.9 |
| 20260506141811 | 18 | 253 | 3.2 | 9.7 | 0.00 | 0.05 | 0.00 | 74 | 1010.0 |
| 20260506140814 | 18 | 253 | 3.2 | 6.4 | 0.00 | 0.05 | 0.00 | 75 | 1009.9 |
| 20260506135814 | 18 | 234 | 3.2 | 6.4 | 0.00 | 0.05 | 0.00 | 75 | 1009.9 |
| 20260506134800 | 17 | 231 | 3.2 | 6.4 | 0.00 | 0.05 | 0.00 | 77 | 1009.8 |
| 20260506133800 | 17 | 246 | 3.2 | 4.8 | 0.00 | 0.05 | 0.00 | 77 | 1009.7 |
| 20260506132759 | 17 | 221 | 3.2 | 6.4 | 0.00 | 0.05 | 0.00 | 78 | 1009.7 |
| 20260506131800 | 17 | 211 | 3.2 | 6.4 | 0.00 | 0.05 | 0.00 | 78 | 1009.9 |
| 20260506130801 | 16 | 293 | 3.2 | 6.4 | 0.00 | 0.05 | 0.00 | 79 | 1010.0 |
| 20260506125800 | 16 | 252 | 3.2 | 6.4 | 0.00 | 0.05 | 0.00 | 80 | 1010.0 |
| 20260506124747 | 16 | 255 | 3.2 | 4.8 | 0.00 | 0.05 | 0.00 | 80 | 1010.1 |
| 20260506123745 | 16 | 290 | 3.2 | 8.0 | 0.00 | 0.05 | 0.00 | 81 | 1010.3 |
| 20260506122747 | 16 | 230 | 3.2 | 8.0 | 0.00 | 0.05 | 0.00 | 80 | 1010.4 |
| 20260506121746 | 16 | 269 | 3.2 | 6.4 | 0.00 | 0.05 | 0.00 | 81 | 1010.4 |
| 20260506120746 | 16 | 242 | 3.2 | 6.4 | 0.00 | 0.05 | 0.00 | 82 | 1010.1 |
| 20260506115731 | 16 | 216 | 3.2 | 6.4 | 0.00 | 0.05 | 0.00 | 81 | 1010.4 |
| 20260506114731 | 16 | 218 | 3.2 | 6.4 | 0.00 | 0.05 | 0.00 | 82 | 1010.2 |
| 20260506113733 | 15 | 260 | 3.2 | 8.0 | 0.00 | 0.05 | 0.00 | 82 | 1010.4 |
| 20260506112718 | 15 | 238 | 3.2 | 4.8 | 0.00 | 0.05 | 0.00 | 82 | 1010.3 |
| 20260506111716 | 15 | 236 | 1.6 | 3.2 | 0.00 | 0.05 | 0.00 | 83 | 1010.1 |
| 20260506110716 | 15 | 234 | 3.2 | 4.8 | 0.00 | 0.05 | 0.00 | 84 | 1010.6 |
| 20260506105702 | 14 | 223 | 1.6 | 3.2 | 0.00 | 0.05 | 0.00 | 85 | 1010.6 |
| 20260506104647 | 14 | 232 | 1.6 | 3.2 | 0.00 | 0.05 | 0.00 | 85 | 1010.5 |
| 20260506103634 | 14 | 231 | 1.6 | 3.2 | 0.00 | 0.05 | 0.00 | 85 | 1010.6 |
| 20260506102634 | 14 | 224 | 1.6 | 3.2 | 0.00 | 0.05 | 0.00 | 85 | 1010.4 |
| 20260506101632 | 14 | 223 | 1.6 | 3.2 | 0.00 | 0.05 | 0.00 | 85 | 1010.2 |
| 20260506100633 | 14 | 233 | 1.6 | 3.2 | 0.00 | 0.05 | 0.00 | 85 | 1010.2 |
| 20260506095633 | 14 | 235 | 1.6 | 4.8 | 0.00 | 0.05 | 0.00 | 85 | 1010.2 |
| 20260506094618 | 14 | 230 | 1.6 | 4.8 | 0.00 | 0.05 | 0.00 | 85 | 1010.2 |
| 20260506093622 | 14 | 229 | 0.0 | 1.6 | 0.00 | 0.05 | 0.00 | 84 | 1010.3 |
| 20260506092618 | 14 | 253 | 1.6 | 3.2 | 0.00 | 0.05 | 0.00 | 84 | 1010.1 |
| 20260506091618 | 14 | 0 | 1.6 | 3.2 | 0.00 | 0.05 | 0.00 | 84 | 1010.2 |
| 20260506090618 | 14 | 223 | 1.6 | 4.8 | 0.00 | 0.05 | 0.00 | 83 | 1010.3 |
| 20260506085605 | 14 | 224 | 1.6 | 3.2 | 0.00 | 0.05 | 0.00 | 83 | 1010.2 |
| 20260506084605 | 14 | 224 | 1.6 | 3.2 | 0.00 | 0.05 | 0.00 | 82 | 1010.3 |
| 20260506083605 | 15 | 214 | 0.0 | 1.6 | 0.00 | 0.05 | 0.00 | 82 | 1010.4 |
| 20260506082605 | 15 | 222 | 0.0 | 1.6 | 0.00 | 0.05 | 0.00 | 82 | 1010.4 |
| 20260506081605 | 15 | 231 | 0.0 | 3.2 | 0.00 | 0.05 | 0.00 | 81 | 1010.3 |
| 20260506080605 | 15 | 0 | 0.0 | 3.2 | 0.00 | 0.05 | 0.00 | 81 | 1010.3 |
| 20260506072551 | 15 | 242 | 1.6 | 4.8 | 0.00 | 0.05 | 0.00 | 79 | 1010.1 |
| 20260506071552 | 15 | 235 | 3.2 | 3.2 | 0.00 | 0.05 | 0.00 | 78 | 1010.1 |
| 20260506070535 | 16 | 229 | 3.2 | 4.8 | 0.00 | 0.05 | 0.00 | 78 | 1010.1 |
| 20260506061521 | 16 | 258 | 3.2 | 6.4 | 0.00 | 0.05 | 0.00 | 75 | 1009.9 |
| 20260506060506 | 16 | 219 | 4.8 | 8.0 | 0.00 | 0.05 | 0.00 | 74 | 1009.9 |
| 20260506050423 | 17 | 140 | 3.2 | 6.4 | 0.00 | 0.05 | 0.00 | 69 | 1010.2 |
| 20260506044422 | 17 | 213 | 3.2 | 4.8 | 0.00 | 0.05 | 0.00 | 68 | 1010.2 |
| 20260506043422 | 17 | 264 | 3.2 | 9.7 | 0.00 | 0.05 | 0.00 | 68 | 1010.1 |
| 20260506042422 | 17 | 248 | 3.2 | 8.0 | 0.00 | 0.05 | 0.00 | 68 | 1010.1 |
| 20260506041422 | 17 | 253 | 3.2 | 6.4 | 0.00 | 0.05 | 0.00 | 67 | 1010.1 |
| 20260506040423 | 17 | 224 | 3.2 | 9.7 | 0.00 | 0.05 | 0.00 | 67 | 1010.1 |
| 20260506035423 | 17 | 232 | 3.2 | 6.4 | 0.00 | 0.05 | 0.05 | 67 | 1010.3 |
| 20260506034424 | 17 | 239 | 3.2 | 9.7 | 0.00 | 0.05 | 0.05 | 66 | 1010.3 |
| 20260506033424 | 17 | 189 | 3.2 | 9.7 | 0.00 | 0.05 | 0.05 | 67 | 1010.4 |
| 20260506032423 | 17 | 210 | 3.2 | 9.7 | 0.00 | 0.05 | 0.05 | 67 | 1010.4 |
| 20260506031422 | 17 | 302 | 1.6 | 6.4 | 0.00 | 0.05 | 0.05 | 67 | 1010.5 |
| 20260506030423 | 17 | 234 | 1.6 | 4.8 | 0.00 | 0.05 | 0.05 | 66 | 1010.5 |
| 20260506025423 | 17 | 230 | 1.6 | 6.4 | 0.00 | 0.05 | 0.05 | 66 | 1010.5 |
| 20260506024423 | 17 | 218 | 1.6 | 6.4 | 0.00 | 0.05 | 0.05 | 66 | 1010.4 |
| 20260506023424 | 17 | 290 | 1.6 | 4.8 | 0.00 | 0.05 | 0.05 | 65 | 1010.3 |
| 20260506022422 | 17 | 231 | 1.6 | 6.4 | 0.00 | 0.05 | 0.05 | 65 | 1010.3 |
| 20260506021424 | 17 | 221 | 1.6 | 6.4 | 0.00 | 0.05 | 0.05 | 64 | 1010.2 |
| 20260506020420 | 17 | 218 | 3.2 | 6.4 | 0.00 | 0.05 | 0.05 | 64 | 1010.1 |
| 20260506015420 | 18 | 247 | 1.6 | 6.4 | 0.00 | 0.05 | 0.05 | 63 | 1010.2 |
| 20260506014422 | 18 | 269 | 1.6 | 4.8 | 0.00 | 0.05 | 0.05 | 63 | 1010.1 |
| 20260506013420 | 18 | 258 | 1.6 | 4.8 | 0.00 | 0.05 | 0.05 | 62 | 1010.0 |
| 20260506012420 | 18 | 347 | 3.2 | 8.0 | 0.00 | 0.05 | 0.05 | 62 | 1009.9 |
| 20260506011419 | 18 | 217 | 3.2 | 9.7 | 0.00 | 0.05 | 0.05 | 61 | 1009.7 |
| 20260506010419 | 19 | 248 | 3.2 | 8.0 | 0.00 | 0.05 | 0.05 | 60 | 1009.6 |
| 20260506005419 | 19 | 0 | 3.2 | 6.4 | 0.00 | 0.05 | 0.05 | 60 | 1009.6 |
| 20260506004415 | 20 | 227 | 3.2 | 8.0 | 0.00 | 0.05 | 0.05 | 59 | 1009.5 |
| 20260506003416 | 20 | 243 | 3.2 | 11.3 | 0.00 | 0.05 | 0.05 | 58 | 1009.3 |
| 20260506002413 | 20 | 233 | 3.2 | 8.0 | 0.00 | 0.05 | 0.05 | 58 | 1009.3 |
| 20260506001415 | 20 | 220 | 3.2 | 8.0 | 0.00 | 0.05 | 0.05 | 57 | 1009.1 |
| 20260506000416 | 20 | 256 | 3.2 | 8.0 | 0.00 | 0.05 | 0.05 | 56 | 1008.8 |
| 20260505235414 | 21 | 216 | 3.2 | 9.7 | 0.00 | 0.05 | 0.05 | 56 | 1008.6 |
| 20260505234414 | 21 | 221 | 3.2 | 8.0 | 0.00 | 0.05 | 0.05 | 55 | 1008.5 |
| 20260505233412 | 21 | 223 | 6.4 | 12.9 | 0.00 | 0.05 | 0.05 | 54 | 1008.4 |
| 20260505232411 | 21 | 234 | 4.8 | 12.9 | 0.00 | 0.05 | 0.05 | 54 | 1008.2 |
| 20260505231411 | 22 | 245 | 4.8 | 12.9 | 0.00 | 0.05 | 0.05 | 54 | 1008.0 |
| 20260505230411 | 22 | 212 | 3.2 | 9.7 | 0.00 | 0.05 | 0.05 | 53 | 1007.9 |
| 20260505225413 | 22 | 238 | 3.2 | 11.3 | 0.00 | 0.05 | 0.05 | 52 | 1007.8 |
| 20260505224411 | 23 | 259 | 3.2 | 9.7 | 0.00 | 0.05 | 0.05 | 51 | 1007.8 |
| 20260505223411 | 23 | 232 | 4.8 | 14.5 | 0.00 | 0.05 | 0.05 | 50 | 1007.6 |
| 20260505222410 | 23 | 234 | 3.2 | 14.5 | 0.00 | 0.05 | 0.05 | 50 | 1007.5 |
| 20260505221410 | 24 | 280 | 4.8 | 9.7 | 0.00 | 0.05 | 0.05 | 49 | 1007.4 |
| 20260505220411 | 25 | 230 | 3.2 | 9.7 | 0.00 | 0.05 | 0.05 | 47 | 1007.4 |
| 20260505215411 | 25 | 230 | 4.8 | 11.3 | 0.00 | 0.05 | 0.05 | 48 | 1007.3 |
| 20260505214407 | 25 | 210 | 4.8 | 11.3 | 0.00 | 0.05 | 0.05 | 47 | 1007.2 |
| 20260505213407 | 25 | 241 | 3.2 | 9.7 | 0.00 | 0.05 | 0.05 | 47 | 1007.3 |
| 20260505212407 | 25 | 224 | 4.8 | 12.9 | 0.03 | 0.05 | 0.05 | 47 | 1007.4 |
| 20260505211409 | 25 | 232 | 4.8 | 11.3 | 0.03 | 0.05 | 0.05 | 47 | 1007.3 |
| 20260505210408 | 25 | 306 | 4.8 | 11.3 | 0.03 | 0.03 | 0.03 | 46 | 1007.3 |
| 20260505205407 | 26 | 236 | 4.8 | 11.3 | 0.03 | 0.03 | 0.03 | 45 | 1007.2 |
| 20260505204405 | 26 | 231 | 4.8 | 14.5 | 0.03 | 0.03 | 0.03 | 45 | 1006.9 |
| 20260505203406 | 26 | 245 | 4.8 | 12.9 | 0.03 | 0.03 | 0.03 | 45 | 1006.9 |
| 20260505202406 | 26 | 243 | 4.8 | 11.3 | 0.03 | 0.03 | 0.03 | 45 | 1006.9 |
| 20260505201406 | 27 | 233 | 4.8 | 14.5 | 0.03 | 0.03 | 0.03 | 44 | 1007.0 |
| 20260505200406 | 27 | 224 | 8.0 | 14.5 | 0.00 | 0.00 | 0.00 | 42 | 1007.0 |
| 20260505195402 | 27 | 220 | 6.4 | 19.3 | 0.00 | 0.00 | 0.00 | 42 | 1007.0 |